Prescott, AZ (86301)

7:24 AM MST on July 30, 2016 (GMT -0700)
Prescott Heights | | Change Station

Elev 5305 ft 34.55 °N, 112.47 °W | Updated 1 second ago

Clear
Clear
68.6 °F
Feels Like 68.6 °F
N
1.0
Wind Variable Wind from SSE
Gusts 4.0 mph

Today
High -- | Low -- °F
--% Chance of Precip.
Yesterday
High -- | Low -- °F
Precip. -- in
Pressure 29.86 in
Visibility 10.0 miles
Clouds Clear
Dew Point 53 °F
Humidity 58%
Rainfall 0.00 in
Snow Depth Not available.
5:39 AM 7:32 PM
Waning Crescent, 13% visible
METAR KPRC 301353Z 00000KT 10SM CLR 22/14 A3012 RMK AO2 SLP110 T02170139
Pressure 29.86 in
Visibility 10.0 miles
Clouds Clear
Dew Point 53 °F
Humidity 58%
Rainfall 0.00 in
Snow Depth Not available.
5:39 AM 7:32 PM
Waning Crescent, 13% visible
METAR KPRC 301353Z 00000KT 10SM CLR 22/14 A3012 RMK AO2 SLP110 T02170139

10-Day Weather Forecast

Almanac

Astronomy

Jul. 30, 2016 Rise Set
Actual Time
Civil Twilight
Nautical Twilight
Astronomical Twilight
Moon
Length of Visible Light
Length of Day
Tomorrow will be .
, % of the Moon is Illuminated

Today's Extremes

State Highs State Lows

Community

WunderPhotos

Upload Photos

1,928,565 photos uploaded!

WunderBlog® & News

Nearby

Air Quality

  Air Quality AQ Index Pollutant
Not available.

Snow Depth

Station Depth Elevation

Earthquake Activity

City Distance Mag. Time & Date
Minimum magnitude displayed is 2.5.

Coastal Water Temperatures

Place Temperature

Stations

Nearby Weather Stations

Station Location Temp. Windchill Dew Point Humidity Wind Precip. Elev Updated Type
                   

Watches & Warnings

There are currently no watches in effect.